createdAt,value
2022-09-20T00:01:24.488Z,5.22
2022-09-20T00:03:56.018Z,5.57
2022-09-20T00:06:25.726Z,3.33
2022-09-20T00:08:53.026Z,5.05
2022-09-20T00:11:21.974Z,4.35
2022-09-20T00:13:49.981Z,4.53
2022-09-20T00:16:22.348Z,4.70
2022-09-20T00:18:53.313Z,4.35
2022-09-20T00:21:22.331Z,4.65
2022-09-20T00:23:49.822Z,4.53
2022-09-20T00:26:17.587Z,4.20
2022-09-20T00:28:44.773Z,5.10
2022-09-20T00:31:12.060Z,4.72
2022-09-20T00:33:57.534Z,6.35
2022-09-20T00:36:24.625Z,4.40
2022-09-20T00:38:56.113Z,4.50
2022-09-20T00:41:23.030Z,4.43
2022-09-20T00:43:50.038Z,5.45
2022-09-20T00:46:22.249Z,5.15
2022-09-20T00:48:50.050Z,3.75
2022-09-20T00:51:19.683Z,7.75
2022-09-20T00:53:48.397Z,4.45
2022-09-20T00:56:21.262Z,4.78
2022-09-20T00:58:52.264Z,3.63
2022-09-20T01:01:19.238Z,4.88
2022-09-20T01:03:46.136Z,3.72
2022-09-20T01:06:14.204Z,3.63
2022-09-20T01:08:42.242Z,5.07
2022-09-20T01:11:09.142Z,8.07
2022-09-20T01:13:36.051Z,4.18
2022-09-20T01:16:03.144Z,5.60
2022-09-20T01:18:30.077Z,4.80
2022-09-20T01:20:56.976Z,5.15
2022-09-20T01:23:58.072Z,6.15
2022-09-20T01:26:43.383Z,4.40
2022-09-20T01:29:18.411Z,4.68
2022-09-20T01:31:50.496Z,5.50
2022-09-20T01:34:37.103Z,8.35
2022-09-20T01:37:11.781Z,4.32
2022-09-20T01:40:06.505Z,4.50
2022-09-20T01:42:36.305Z,5.05
2022-09-20T01:45:17.500Z,6.13
2022-09-20T01:47:52.735Z,5.60
2022-09-20T01:51:07.191Z,5.05
2022-09-20T01:53:43.098Z,5.80
2022-09-20T01:56:22.314Z,3.90
2022-09-20T01:59:07.268Z,4.95
2022-09-20T02:01:54.277Z,4.90
2022-09-20T02:04:40.596Z,4.60
2022-09-20T02:07:20.883Z,6.00
2022-09-20T02:10:01.205Z,5.00
2022-09-20T02:12:50.014Z,6.55
2022-09-20T02:15:53.372Z,4.43
2022-09-20T02:18:53.406Z,4.15
2022-09-20T02:21:33.827Z,4.55
2022-09-20T02:24:15.865Z,4.82
2022-09-20T02:26:45.540Z,3.70
2022-09-20T02:29:21.138Z,4.68
2022-09-20T02:32:03.128Z,4.75
2022-09-20T02:34:33.215Z,4.50
2022-09-20T02:37:25.733Z,4.35
2022-09-20T02:40:13.916Z,3.63
2022-09-20T02:42:47.789Z,5.72
2022-09-20T02:45:24.234Z,4.82
2022-09-20T02:47:51.131Z,7.65
2022-09-20T02:50:42.065Z,5.05
2022-09-20T02:53:31.884Z,4.53
2022-09-20T02:56:52.970Z,4.55
2022-09-20T02:59:24.258Z,4.85
2022-09-20T03:02:20.348Z,5.57
2022-09-20T03:05:11.261Z,6.25
2022-09-20T03:08:06.115Z,3.60
2022-09-20T03:10:32.938Z,4.97
2022-09-20T03:13:11.576Z,5.00
2022-09-20T03:15:41.238Z,4.68
2022-09-20T03:18:23.138Z,6.15
2022-09-20T03:21:08.460Z,4.40
2022-09-20T03:23:56.571Z,4.70
2022-09-20T03:26:50.288Z,5.88
2022-09-20T03:29:36.357Z,5.22
2022-09-20T03:32:07.348Z,6.57
2022-09-20T03:34:52.981Z,5.88
2022-09-20T03:37:40.476Z,5.25
2022-09-20T03:41:01.775Z,8.25
2022-09-20T03:43:56.391Z,4.47
2022-09-20T03:46:27.185Z,4.05
2022-09-20T03:49:31.144Z,5.25
2022-09-20T03:52:06.191Z,9.05
2022-09-20T03:54:51.865Z,4.55
2022-09-20T03:57:51.878Z,6.40
2022-09-20T04:00:25.669Z,4.35
2022-09-20T04:03:17.671Z,6.40
2022-09-20T04:05:50.470Z,5.60
2022-09-20T04:08:26.098Z,6.35
2022-09-20T04:11:35.663Z,5.32
2022-09-20T04:14:19.753Z,6.60
2022-09-20T04:16:48.839Z,8.13
2022-09-20T04:19:42.208Z,5.47
2022-09-20T04:22:09.270Z,7.78
2022-09-20T04:24:51.285Z,5.78
2022-09-20T04:27:21.733Z,6.40
2022-09-20T04:30:13.323Z,8.85
2022-09-20T04:33:04.356Z,6.72
2022-09-20T04:36:11.924Z,6.60
2022-09-20T04:38:39.115Z,6.72
2022-09-20T04:41:32.472Z,6.60
2022-09-20T04:44:37.099Z,7.50
2022-09-20T04:47:25.630Z,6.13
2022-09-20T04:50:06.329Z,6.22
2022-09-20T04:52:50.700Z,5.43
2022-09-20T04:55:42.243Z,7.47
2022-09-20T04:58:36.355Z,7.22
2022-09-20T05:01:16.900Z,10.02
2022-09-20T05:03:53.049Z,6.97
2022-09-20T05:06:39.023Z,7.97
2022-09-20T05:09:32.542Z,6.25
2022-09-20T05:12:18.059Z,6.18
2022-09-20T05:15:11.585Z,6.18
2022-09-20T05:18:06.446Z,6.15
2022-09-20T05:20:44.679Z,7.70
2022-09-20T05:23:19.147Z,5.72
2022-09-20T05:26:11.682Z,5.35
2022-09-20T05:28:45.261Z,6.47
2022-09-20T05:31:41.720Z,7.05
2022-09-20T05:34:39.277Z,7.55
2022-09-20T05:37:42.133Z,5.90
2022-09-20T05:40:16.004Z,6.97
2022-09-20T05:43:14.369Z,8.05
2022-09-20T05:46:16.412Z,7.50
2022-09-20T05:48:56.764Z,7.93
2022-09-20T05:51:51.434Z,8.68
2022-09-20T05:54:25.242Z,6.28
2022-09-20T05:56:55.646Z,12.00
2022-09-20T05:59:30.419Z,9.57
2022-09-20T06:02:24.700Z,6.97
2022-09-20T06:05:11.832Z,7.03
2022-09-20T06:08:15.589Z,8.45
2022-09-20T06:10:42.777Z,6.55
2022-09-20T06:13:47.440Z,6.32
2022-09-20T06:16:46.280Z,7.60
2022-09-20T06:19:22.114Z,10.07
2022-09-20T06:21:56.701Z,9.73
2022-09-20T06:24:47.934Z,8.38
2022-09-20T06:27:22.112Z,8.23
2022-09-20T06:29:56.223Z,6.00
2022-09-20T06:32:23.130Z,7.53
2022-09-20T06:34:50.023Z,7.47
2022-09-20T06:37:41.383Z,9.88
2022-09-20T06:40:33.618Z,12.70
2022-09-20T06:43:00.921Z,8.70
2022-09-20T06:45:27.762Z,6.70
2022-09-20T06:47:54.690Z,9.40
2022-09-20T06:50:21.579Z,6.75
2022-09-20T06:52:49.332Z,8.35
2022-09-20T06:55:26.062Z,6.20
2022-09-20T06:57:55.723Z,8.33
2022-09-20T07:00:22.785Z,15.38
2022-09-20T07:02:50.003Z,7.38
2022-09-20T07:05:17.482Z,11.20
2022-09-20T07:07:44.433Z,10.30
2022-09-20T07:10:12.052Z,8.43
2022-09-20T07:12:39.265Z,11.68
2022-09-20T07:15:07.399Z,8.52
2022-09-20T07:17:34.394Z,12.05
2022-09-20T07:20:01.401Z,9.27
2022-09-20T07:22:28.360Z,7.40
2022-09-20T07:24:55.295Z,11.98
2022-09-20T07:27:22.461Z,9.43
2022-09-20T07:29:50.466Z,10.48
2022-09-20T07:32:18.051Z,17.63
2022-09-20T07:34:44.936Z,11.05
2022-09-20T07:37:11.843Z,10.10
2022-09-20T07:39:38.755Z,10.57
2022-09-20T07:42:08.452Z,10.15
2022-09-20T07:44:35.327Z,13.50
2022-09-20T07:47:02.254Z,8.60
2022-09-20T07:49:31.945Z,7.70
2022-09-20T07:51:58.995Z,9.80
2022-09-20T07:54:27.677Z,7.32
2022-09-20T07:56:54.712Z,8.88
2022-09-20T07:59:21.610Z,8.27
2022-09-20T08:01:48.645Z,8.52
2022-09-20T08:04:15.517Z,10.10
2022-09-20T08:06:45.573Z,7.97
2022-09-20T08:09:13.152Z,8.02
2022-09-20T08:11:40.668Z,9.65
2022-09-20T08:14:09.082Z,9.70
2022-09-20T08:16:40.777Z,8.25
2022-09-20T08:19:07.701Z,7.60
2022-09-20T08:21:35.390Z,10.15
2022-09-20T08:24:04.136Z,7.65
2022-09-20T08:26:35.825Z,10.32
2022-09-20T08:29:02.871Z,7.65
2022-09-20T08:31:34.551Z,8.07
2022-09-20T08:34:03.841Z,7.75
2022-09-20T08:36:36.062Z,9.45
2022-09-20T08:42:09.043Z,7.82
2022-09-20T08:44:45.273Z,6.25
2022-09-20T08:47:18.019Z,9.77
2022-09-20T08:49:46.377Z,5.60
2022-09-20T08:52:17.018Z,7.70
2022-09-20T08:54:44.063Z,9.13
2022-09-20T08:57:18.431Z,5.85
2022-09-20T08:59:45.346Z,6.95
2022-09-20T09:02:17.308Z,5.25
2022-09-20T09:04:45.434Z,5.28
2022-09-20T09:07:17.242Z,4.55
2022-09-20T09:09:44.575Z,3.72
2022-09-20T09:12:29.105Z,5.13
2022-09-20T09:14:59.421Z,5.22
2022-09-20T09:17:30.292Z,5.00
2022-09-20T09:19:58.522Z,6.18
2022-09-20T09:22:36.895Z,5.93
2022-09-20T09:25:32.354Z,5.78
2022-09-20T09:28:08.369Z,4.18
2022-09-20T09:30:47.672Z,2.55
2022-09-20T09:33:26.770Z,3.45
2022-09-20T09:36:04.979Z,3.22
2022-09-20T09:38:33.862Z,2.83
2022-09-20T09:41:05.781Z,3.30
2022-09-20T09:43:35.565Z,2.70
2022-09-20T09:46:21.474Z,2.90
2022-09-20T09:49:05.613Z,4.10
2022-09-20T09:51:34.581Z,6.50
2022-09-20T09:54:01.546Z,4.80
2022-09-20T09:56:33.216Z,3.50
2022-09-20T09:59:40.371Z,5.00
2022-09-20T10:02:28.369Z,3.22
2022-09-20T10:05:01.134Z,4.07
2022-09-20T10:08:06.280Z,3.05
2022-09-20T10:10:52.974Z,5.30
2022-09-20T10:14:03.554Z,2.58
2022-09-20T10:16:32.332Z,2.58
2022-09-20T10:19:06.556Z,2.60
2022-09-20T10:21:43.709Z,2.85
2022-09-20T10:24:35.666Z,2.30
2022-09-20T10:27:43.666Z,3.05
2022-09-20T10:30:11.851Z,2.45
2022-09-20T10:32:56.700Z,2.40
2022-09-20T10:35:55.906Z,1.70
2022-09-20T10:38:34.886Z,2.28
2022-09-20T10:41:49.572Z,3.58
2022-09-20T10:44:19.190Z,2.80
2022-09-20T10:47:10.604Z,2.65
2022-09-20T10:49:53.498Z,3.38
2022-09-20T10:52:49.330Z,2.55
2022-09-20T10:55:20.496Z,3.13
2022-09-20T10:57:56.218Z,2.97
2022-09-20T11:00:24.067Z,2.45
2022-09-20T11:03:19.004Z,1.85
2022-09-20T11:06:10.817Z,2.45
2022-09-20T11:08:38.422Z,2.72
2022-09-20T11:11:19.961Z,2.80
2022-09-20T11:14:03.702Z,2.22
2022-09-20T11:16:41.964Z,2.28
2022-09-20T11:19:23.616Z,2.58
2022-09-20T11:21:54.426Z,2.90
2022-09-20T11:24:28.604Z,2.58
2022-09-20T11:27:00.839Z,2.60
2022-09-20T11:29:32.395Z,2.97
2022-09-20T11:32:13.884Z,3.40
2022-09-20T11:34:55.532Z,2.42
2022-09-20T11:37:23.369Z,2.33
2022-09-20T11:39:56.860Z,3.58
2022-09-20T11:42:28.827Z,2.33
2022-09-20T11:44:55.674Z,2.60
2022-09-20T11:47:55.083Z,1.95
2022-09-20T11:50:35.242Z,1.83
2022-09-20T11:53:27.800Z,2.08
2022-09-20T11:56:24.965Z,2.05
2022-09-20T11:58:56.074Z,2.65
2022-09-20T12:01:36.677Z,2.85
2022-09-20T12:04:31.749Z,3.75
2022-09-20T12:07:07.826Z,2.50
2022-09-20T12:09:40.831Z,1.65
2022-09-20T12:12:37.819Z,2.08
2022-09-20T12:15:07.062Z,3.00
2022-09-20T12:17:46.252Z,3.08
2022-09-20T12:20:35.124Z,3.95
2022-09-20T12:23:40.940Z,3.22
2022-09-20T12:26:23.118Z,2.42
2022-09-20T12:28:50.834Z,2.78
2022-09-20T12:31:29.144Z,3.08
2022-09-20T12:33:59.868Z,2.10
2022-09-20T12:36:35.340Z,2.47
2022-09-20T12:39:19.080Z,4.63
2022-09-20T12:41:54.090Z,3.33
2022-09-20T12:44:26.697Z,2.95
2022-09-20T12:46:56.486Z,4.20
2022-09-20T12:49:48.241Z,1.88
2022-09-20T12:52:50.491Z,3.42
2022-09-20T12:55:30.039Z,2.38
2022-09-20T13:00:34.627Z,4.80
2022-09-20T13:03:02.493Z,3.95
2022-09-20T13:05:40.459Z,2.38
2022-09-20T13:08:13.595Z,4.10
2022-09-20T13:10:49.944Z,3.78
2022-09-20T13:13:32.355Z,2.58
2022-09-20T13:15:59.474Z,5.68
2022-09-20T13:18:28.845Z,2.80
2022-09-20T13:20:56.502Z,2.42
2022-09-20T13:23:28.144Z,3.40
2022-09-20T13:25:57.696Z,3.05
2022-09-20T13:28:35.194Z,2.58
2022-09-20T13:31:20.548Z,2.38
2022-09-20T13:33:50.650Z,3.30
2022-09-20T13:36:28.363Z,2.20
2022-09-20T13:38:56.539Z,4.03
2022-09-20T13:41:23.905Z,4.20
2022-09-20T13:43:50.955Z,3.38
2022-09-20T13:46:21.573Z,4.82
2022-09-20T13:48:59.778Z,3.78
2022-09-20T13:51:27.896Z,2.70
2022-09-20T13:53:54.993Z,3.83
2022-09-20T13:56:23.556Z,2.70
2022-09-20T13:58:50.938Z,3.22
2022-09-20T14:01:34.958Z,4.38
2022-09-20T14:04:07.716Z,2.75
2022-09-20T14:06:34.806Z,4.25
2022-09-20T14:09:07.079Z,4.18
2022-09-20T14:11:37.046Z,3.53
2022-09-20T14:14:04.360Z,4.13
2022-09-20T14:16:36.045Z,3.25
2022-09-20T14:19:03.191Z,3.83
2022-09-20T14:21:32.547Z,4.40
2022-09-20T14:24:06.390Z,3.33
2022-09-20T14:26:37.457Z,3.88
2022-09-20T14:29:32.206Z,3.00
2022-09-20T14:32:05.339Z,3.17
2022-09-20T14:34:35.030Z,3.03
2022-09-20T14:37:18.518Z,4.35
2022-09-20T14:39:50.419Z,3.65
2022-09-20T14:42:33.378Z,2.67
2022-09-20T14:45:00.340Z,5.30
2022-09-20T14:47:29.183Z,2.65
2022-09-20T14:49:56.146Z,4.45
2022-09-20T14:52:26.768Z,3.55
2022-09-20T14:55:13.449Z,2.58
2022-09-20T14:57:40.903Z,2.65
2022-09-20T15:00:15.382Z,3.80
2022-09-20T15:02:43.456Z,5.28
2022-09-20T15:05:24.023Z,4.28
2022-09-20T15:07:51.007Z,3.17
2022-09-20T15:10:17.856Z,2.60
2022-09-20T15:12:44.813Z,4.20
2022-09-20T15:15:15.032Z,3.17
2022-09-20T15:17:42.734Z,2.70
2022-09-20T15:20:24.247Z,4.05
2022-09-20T15:22:51.516Z,3.88
2022-09-20T15:25:20.918Z,3.45
2022-09-20T15:27:48.346Z,2.67
2022-09-20T15:30:16.489Z,3.83
2022-09-20T15:32:44.526Z,3.15
2022-09-20T15:35:11.982Z,2.53
2022-09-20T15:37:39.046Z,2.70
2022-09-20T15:40:06.885Z,3.38
2022-09-20T15:42:38.011Z,2.60
2022-09-20T15:45:09.259Z,3.17
2022-09-20T15:47:37.426Z,5.22
2022-09-20T15:50:06.794Z,3.22
2022-09-20T15:52:37.146Z,2.88
2022-09-20T15:55:04.358Z,5.05
2022-09-20T15:57:32.055Z,3.22
2022-09-20T15:59:59.550Z,2.63
2022-09-20T16:02:26.856Z,2.70
2022-09-20T16:04:56.681Z,2.83
2022-09-20T16:07:25.785Z,3.58
2022-09-20T16:09:56.735Z,4.15
2022-09-20T16:12:24.364Z,2.45
2022-09-20T16:14:51.343Z,2.55
2022-09-20T16:17:18.254Z,4.97
2022-09-20T16:19:48.760Z,3.00
2022-09-20T16:22:16.189Z,3.28
2022-09-20T16:24:43.035Z,3.85
2022-09-20T16:27:09.931Z,3.63
2022-09-20T16:29:36.946Z,4.07
2022-09-20T16:32:04.147Z,3.83
2022-09-20T16:34:35.429Z,2.85
2022-09-20T16:37:03.104Z,3.38
2022-09-20T16:39:30.546Z,3.65
2022-09-20T16:42:05.057Z,3.20
2022-09-20T16:44:32.728Z,5.50
2022-09-20T16:46:59.702Z,3.92
2022-09-20T16:49:29.569Z,2.80
2022-09-20T16:51:56.424Z,3.85
2022-09-20T16:54:23.446Z,3.80
2022-09-20T16:56:50.741Z,3.50
2022-09-20T16:59:19.139Z,4.80
2022-09-20T17:01:46.046Z,3.85
2022-09-20T17:04:14.368Z,3.88
2022-09-20T17:06:43.229Z,5.78
2022-09-20T17:09:10.275Z,3.87
2022-09-20T17:11:38.807Z,3.95
2022-09-20T17:14:05.874Z,5.40
2022-09-20T17:16:34.698Z,4.07
2022-09-20T17:19:03.207Z,4.28
2022-09-20T17:21:30.473Z,3.60
2022-09-20T17:23:58.252Z,4.18
2022-09-20T17:26:36.858Z,3.83
2022-09-20T17:29:06.654Z,3.55
2022-09-20T17:31:35.134Z,4.53
2022-09-20T17:34:04.064Z,5.57
2022-09-20T17:36:32.750Z,4.43
2022-09-20T17:39:04.093Z,4.15
2022-09-20T17:41:31.680Z,3.85
2022-09-20T17:43:59.430Z,6.13
2022-09-20T17:46:30.102Z,3.70
2022-09-20T17:49:00.605Z,4.68
2022-09-20T17:51:32.047Z,4.45
2022-09-20T17:53:59.129Z,4.00
2022-09-20T17:56:29.571Z,3.58
2022-09-20T17:58:59.522Z,3.75
2022-09-20T18:01:27.399Z,4.88
2022-09-20T18:03:56.263Z,4.28
2022-09-20T18:06:27.088Z,4.68
2022-09-20T18:08:55.715Z,5.28
2022-09-20T18:11:25.078Z,3.28
2022-09-20T18:13:52.014Z,3.67
2022-09-20T18:16:18.938Z,3.67
2022-09-20T18:18:46.583Z,5.43
2022-09-20T18:21:15.342Z,5.53
2022-09-20T18:23:43.060Z,7.53
2022-09-20T18:26:23.206Z,4.70
2022-09-20T18:29:03.482Z,10.45
2022-09-20T18:31:43.047Z,4.85
2022-09-20T18:34:17.843Z,4.88
2022-09-20T18:36:46.478Z,4.80
2022-09-20T18:39:14.236Z,7.57
2022-09-20T18:41:41.256Z,4.43
2022-09-20T18:44:08.155Z,4.35
2022-09-20T18:46:37.940Z,7.00
2022-09-20T18:49:07.386Z,9.57
2022-09-20T18:51:39.145Z,7.00
2022-09-20T18:54:09.023Z,6.55
2022-09-20T18:56:36.691Z,5.57
2022-09-20T18:59:23.058Z,4.95
2022-09-20T19:01:55.866Z,9.27
2022-09-20T19:04:32.052Z,4.03
2022-09-20T19:07:13.966Z,8.25
2022-09-20T19:10:08.809Z,10.85
2022-09-20T19:12:52.426Z,5.95
2022-09-20T19:15:29.844Z,5.88
2022-09-20T19:18:27.120Z,5.05
2022-09-20T19:21:17.186Z,5.50
2022-09-20T19:24:12.103Z,6.35
2022-09-20T19:26:39.227Z,5.53
2022-09-20T19:29:28.561Z,4.15
2022-09-20T19:31:57.018Z,6.05
2022-09-20T19:34:28.430Z,4.93
2022-09-20T19:37:08.547Z,6.40
2022-09-20T19:40:12.529Z,6.70
2022-09-20T19:43:05.709Z,9.52
2022-09-20T19:45:57.372Z,10.77
2022-09-20T19:48:40.892Z,6.63
2022-09-20T19:51:11.844Z,7.38
2022-09-20T19:53:39.320Z,8.05
2022-09-20T19:56:18.795Z,10.32
2022-09-20T19:58:46.659Z,7.78
2022-09-20T20:01:13.918Z,4.00
2022-09-20T20:03:41.117Z,5.28
2022-09-20T20:06:16.319Z,7.15
2022-09-20T20:08:48.756Z,9.60
2022-09-20T20:11:28.085Z,5.78
2022-09-20T20:14:07.451Z,6.43
2022-09-20T20:16:43.693Z,6.25
2022-09-20T20:19:32.002Z,6.63
2022-09-20T20:22:16.250Z,5.13
2022-09-20T20:24:50.853Z,8.38
2022-09-20T20:27:18.263Z,5.28
2022-09-20T20:29:45.192Z,6.60
2022-09-20T20:32:12.115Z,5.57
2022-09-20T20:34:39.037Z,7.00
2022-09-20T20:37:06.027Z,11.10
2022-09-20T20:39:32.959Z,8.93
2022-09-20T20:42:03.309Z,7.97
2022-09-20T20:44:35.034Z,10.52
2022-09-20T20:47:06.069Z,9.88
2022-09-20T20:49:33.116Z,8.93
2022-09-20T20:52:04.869Z,12.88
2022-09-20T20:54:32.476Z,9.95
2022-09-20T20:56:59.630Z,12.93
2022-09-20T20:59:26.631Z,11.90
2022-09-20T21:01:53.621Z,10.50
2022-09-20T21:04:21.798Z,12.23
2022-09-20T21:06:50.190Z,9.75
2022-09-20T21:09:17.109Z,9.55
2022-09-20T21:11:44.446Z,10.00
2022-09-20T21:14:12.699Z,10.48
2022-09-20T21:16:42.696Z,9.93
2022-09-20T21:21:38.854Z,8.60
2022-09-20T21:24:07.306Z,9.52
2022-09-20T21:26:34.981Z,12.00
2022-09-20T21:29:03.872Z,13.77
2022-09-20T21:31:32.135Z,15.45
2022-09-20T21:33:59.174Z,16.52
2022-09-20T21:36:27.559Z,16.05
2022-09-20T21:38:54.680Z,17.45
2022-09-20T21:41:32.082Z,19.15
2022-09-20T21:44:03.023Z,15.45
2022-09-20T21:46:34.201Z,15.82
2022-09-20T21:49:04.097Z,14.80
2022-09-20T21:53:59.594Z,12.88
2022-09-20T21:56:27.766Z,11.13
2022-09-20T21:58:55.129Z,14.88
2022-09-20T22:01:23.472Z,12.88
2022-09-20T22:03:59.106Z,14.13
2022-09-20T22:06:27.810Z,13.35
2022-09-20T22:08:58.494Z,10.88
2022-09-20T22:11:29.942Z,11.93
2022-09-20T22:13:56.992Z,10.82
2022-09-20T22:16:25.750Z,11.65
2022-09-20T22:18:52.769Z,14.40
2022-09-20T22:21:24.180Z,12.43
2022-09-20T22:23:52.016Z,11.80
2022-09-20T22:26:20.669Z,10.23
2022-09-20T22:28:49.869Z,11.65
2022-09-20T22:31:18.517Z,10.40
2022-09-20T22:33:46.929Z,10.85
2022-09-20T22:36:15.594Z,14.07
2022-09-20T22:38:43.059Z,14.80
2022-09-20T22:41:10.294Z,11.60
2022-09-20T22:43:37.473Z,10.40
2022-09-20T22:46:07.991Z,12.32
2022-09-20T22:48:35.474Z,10.38
2022-09-20T22:51:03.588Z,9.75
2022-09-20T22:53:30.661Z,9.68
2022-09-20T22:56:03.793Z,11.55
2022-09-20T22:58:38.527Z,12.38
2022-09-20T23:01:07.175Z,10.48
2022-09-20T23:03:34.161Z,10.30
2022-09-20T23:06:01.213Z,7.32
2022-09-20T23:08:28.090Z,13.27
2022-09-20T23:11:05.007Z,10.15
2022-09-20T23:13:32.110Z,12.77
2022-09-20T23:15:58.959Z,12.80
2022-09-20T23:18:25.803Z,12.45
2022-09-20T23:21:00.383Z,10.73
2022-09-20T23:23:27.689Z,9.93
2022-09-20T23:25:57.502Z,12.20
2022-09-20T23:30:54.320Z,9.00
2022-09-20T23:33:21.248Z,10.30
2022-09-20T23:35:48.142Z,9.93
2022-09-20T23:38:14.982Z,9.73
2022-09-20T23:40:41.874Z,10.23
2022-09-20T23:43:08.802Z,10.63
2022-09-20T23:45:35.734Z,11.48
2022-09-20T23:48:02.808Z,8.77
2022-09-20T23:50:29.648Z,9.52
2022-09-20T23:52:56.558Z,9.70
2022-09-20T23:55:23.425Z,8.65
2022-09-20T23:57:57.740Z,9.00
